Site contains unofficial IBTrACS data. Visit the IBTrACS Website to access archived data.

1889 Severe Cyclonic Storm NOT_NAMED (1889153N14070)


IBTrACS version v04r00. Visit IBTrACS website for data access.
Please direct all questions to the IBTrACS Q and A forum

Storm track - Intensity - Wind Radii - Intensity Data - Source Data - All data

Summary Information

Storm ID 1889153N14070
Start Jun 2 00Z
Max Intensity 64 kt (Jun 2 03Z)
End Jun 10 03Z
ATCF IDs
Track status Best track data.

Storm track plot

Map of storm track

Intensity plots

Map of storm track

Radial wind information

No radial wind information for this storm


Position and Intensity Table

BASIN ISO_TIME_________ NATURE LAT LON DS824 WIND
degrees north degrees east kts
NI 1889-06-02 00:00:00 TS 13.80 70.40 64
NI 03:00:00 TS 13.89 70.40 64
NI 06:00:00 TS 14.06 70.40 64
NI 09:00:00 TS 14.28 70.40 64
NI 12:00:00 TS 14.50 70.40 64
NI 15:00:00 TS 14.70 70.40 64
NI 18:00:00 TS 14.90 70.40 64
NI 21:00:00 TS 15.11 70.40 64
NI 1889-06-03 00:00:00 TS 15.31 70.40 64
NI 03:00:00 TS 15.48 70.40 64
NI 06:00:00 TS 15.63 70.39 64
NI 09:00:00 TS 15.78 70.35 64
NI 12:00:00 TS 15.93 70.31 64
NI 15:00:00 TS 16.10 70.30 64
NI 18:00:00 TS 16.29 70.29 64
NI 21:00:00 TS 16.47 70.25 64
NI 1889-06-04 00:00:00 TS 16.62 70.21 64
NI 03:00:00 TS 16.75 70.20 64
NI 06:00:00 TS 16.86 70.19 64
NI 09:00:00 TS 16.95 70.15 64
NI 12:00:00 TS 17.05 70.11 64
NI 15:00:00 TS 17.17 70.10 64
NI 18:00:00 TS 17.30 70.09 64
NI 21:00:00 TS 17.41 70.06 64
NI 1889-06-05 00:00:00 TS 17.53 70.02 64
NI 03:00:00 TS 17.70 69.98 64
NI 06:00:00 TS 17.88 69.93 64
NI 09:00:00 TS 18.05 69.88 64
NI 12:00:00 TS 18.21 69.83 64
NI 15:00:00 TS 18.38 69.77 64
NI 18:00:00 TS 18.52 69.73 64
NI 21:00:00 TS 18.66 69.69 64
NI 1889-06-06 00:00:00 TS 18.82 69.63 64
NI 03:00:00 TS 18.99 69.55 64
NI 06:00:00 TS 19.20 69.46 64
NI 09:00:00 TS 19.44 69.36 64
NI 12:00:00 TS 19.68 69.25 64
NI 15:00:00 TS 19.93 69.15 64
NI 18:00:00 TS 20.16 69.05 64
NI 21:00:00 TS 20.37 68.95 64
NI 1889-06-07 00:00:00 TS 20.59 68.85 64
NI 03:00:00 TS 20.82 68.75 64
NI 06:00:00 TS 21.06 68.64 64
NI 09:00:00 TS 21.28 68.50 64
NI 12:00:00 TS 21.49 68.36 64
NI 15:00:00 TS 21.72 68.25 64
NI 18:00:00 TS 21.95 68.17 64
NI 21:00:00 TS 22.15 68.08 64
NI 1889-06-08 00:00:00 TS 22.37 67.92 64
NI 03:00:00 TS 22.70 67.61 64
NI 06:00:00 TS 23.07 67.16 64
NI 09:00:00 TS 23.39 66.66 64
NI 12:00:00 TS 23.66 66.10 64
NI 15:00:00 TS 23.89 65.51 64
NI 18:00:00 TS 24.04 64.88 64
NI 21:00:00 TS 24.14 64.19 64
NI 1889-06-09 00:00:00 TS 24.19 63.57 64
NI 03:00:00 TS 24.18 63.15 64
NI 06:00:00 TS 24.15 62.86 64
NI 09:00:00 TS 24.14 62.58 64
NI 12:00:00 TS 24.12 62.31 64
NI 15:00:00 TS 24.10 62.05 56
NI 18:00:00 TS 24.08 61.80 49
NI 21:00:00 TS 24.05 61.55 41
NI 1889-06-10 00:00:00 TS 24.01 61.30 34
NI 03:00:00 NR 24.00 61.10

Source Information

Agency Information
USA
TOKYO
CMA
HKO
NEWDELHI
REUNION
BOM
NADI
WELLINGTON
DS824 n_ind.dat:134:NOT NAMED
TD9636 cons_worldwide_trop_cyclone_18710101-19891231-004:Line=1365
TD9635
NEUMANN
MLC

All available IBTrACS Data

SEASON BASIN SUBBASIN ISO_TIME_________ NATURE LAT LON DIST2LAND LANDFALL IFLAG USA SSHS DS824 LAT DS824 LON DS824 STAGE DS824 WIND TD9636 LAT TD9636 LON TD9636 STAGE STORM SPEED STORM DIR
Year degrees north degrees east km km 1 degrees north degrees east kts degrees north degrees east kts degrees
1889 NI AS 1889-06-02 00:00:00 TS 13.80 70.40 404 400 _________O____ -1 13.80 70.40 TC 64 2 16
1889 NI AS 03:00:00 TS 13.89 70.40 400 396 _________PO___ -1 13.93 70.40 TC 64 13.80 70.40 4 3 356
1889 NI AS 06:00:00 TS 14.06 70.40 392 383 _________OP___ -1 14.10 70.40 TC 64 14.00 70.40 4 4 0
1889 NI AS 09:00:00 TS 14.28 70.40 383 375 _________PP___ -1 14.34 70.40 TC 64 14.20 70.40 4 4 0
1889 NI AS 12:00:00 TS 14.50 70.40 375 367 _________OP___ -1 14.60 70.40 TC 64 14.40 70.40 4 4 0
1889 NI AS 15:00:00 TS 14.70 70.40 367 358 _________PO___ -1 14.81 70.40 TC 64 14.60 70.40 4 4 0
1889 NI AS 18:00:00 TS 14.90 70.40 358 347 _________OP___ -1 15.00 70.40 TC 64 14.81 70.40 4 4 0
1889 NI AS 21:00:00 TS 15.11 70.40 347 338 _________PP___ -1 15.21 70.40 TC 64 15.01 70.41 4 4 2
1889 NI AS 1889-06-03 00:00:00 TS 15.31 70.40 338 329 _________OP___ -1 15.40 70.40 TC 64 15.21 70.41 4 4 0
1889 NI AS 03:00:00 TS 15.48 70.40 329 325 _________PO___ -1 15.56 70.41 TC 64 15.40 70.40 4 3 356
1889 NI AS 06:00:00 TS 15.63 70.39 325 319 _________OP___ -1 15.70 70.40 TC 64 15.56 70.38 4 3 353
1889 NI AS 09:00:00 TS 15.78 70.35 319 319 _________PP___ -1 15.84 70.35 TC 64 15.71 70.36 4 3 346
1889 NI AS 12:00:00 TS 15.93 70.31 327 323 _________OP___ -1 16.00 70.30 TC 64 15.85 70.33 4 3 351
1889 NI AS 15:00:00 TS 16.10 70.30 323 320 _________PO___ -1 16.20 70.30 TC 64 16.00 70.30 4 4 358
1889 NI AS 18:00:00 TS 16.29 70.29 320 319 _________OP___ -1 16.40 70.30 TC 64 16.18 70.28 4 4 354
1889 NI AS 21:00:00 TS 16.47 70.25 319 319 _________PP___ -1 16.57 70.25 TC 64 16.36 70.25 4 3 348
1889 NI AS 1889-06-04 00:00:00 TS 16.62 70.21 327 324 _________OP___ -1 16.70 70.20 TC 64 16.54 70.23 4 3 353
1889 NI AS 03:00:00 TS 16.75 70.20 320 317 _________PO___ -1 16.81 70.20 TC 64 16.70 70.20 4 2 0
1889 NI AS 06:00:00 TS 16.86 70.19 317 317 _________OP___ -1 16.90 70.20 TC 64 16.82 70.17 4 2 347
1889 NI AS 09:00:00 TS 16.95 70.15 315 325 _________PP___ -1 16.99 70.15 TC 64 16.91 70.15 4 2 340
1889 NI AS 12:00:00 TS 17.05 70.11 321 317 _________OP___ -1 17.10 70.10 TC 64 17.00 70.12 4 2 351
1889 NI AS 15:00:00 TS 17.17 70.10 317 313 _________PO___ -1 17.25 70.10 TC 64 17.10 70.10 4 3 355
1889 NI AS 18:00:00 TS 17.30 70.09 313 309 _________OP___ -1 17.40 70.10 TC 64 17.21 70.08 4 2 352
1889 NI AS 21:00:00 TS 17.41 70.06 309 309 _________PP___ -1 17.49 70.06 TC 64 17.33 70.06 4 2 343
1889 NI AS 1889-06-05 00:00:00 TS 17.53 70.02 316 311 _________OP___ -1 17.60 70.00 TC 64 17.46 70.03 4 3 345
1889 NI AS 03:00:00 TS 17.70 69.98 311 309 _________PO___ -1 17.79 69.95 TC 64 17.60 70.00 4 4 348
1889 NI AS 06:00:00 TS 17.88 69.93 318 316 _________OP___ -1 18.00 69.90 TC 64 17.76 69.96 4 4 346
1889 NI AS 09:00:00 TS 18.05 69.88 305 298 _________PP___ -1 18.16 69.85 TC 64 17.94 69.91 4 3 344
1889 NI AS 12:00:00 TS 18.21 69.83 298 277 _________OP___ -1 18.30 69.80 TC 64 18.12 69.85 4 3 344
1889 NI AS 15:00:00 TS 18.38 69.77 277 267 _________PO___ -1 18.45 69.75 TC 64 18.30 69.80 4 3 342
1889 NI AS 18:00:00 TS 18.52 69.73 271 251 _________OP___ -1 18.60 69.70 TC 64 18.44 69.76 4 3 343
1889 NI AS 21:00:00 TS 18.66 69.69 251 241 _________PP___ -1 18.74 69.66 TC 64 18.58 69.71 4 3 343
1889 NI AS 1889-06-06 00:00:00 TS 18.82 69.63 246 227 _________OP___ -1 18.90 69.60 TC 64 18.73 69.66 4 4 339
1889 NI AS 03:00:00 TS 18.99 69.55 227 215 _________PO___ -1 19.09 69.51 TC 64 18.90 69.60 4 4 337
1889 NI AS 06:00:00 TS 19.20 69.46 215 203 _________OP___ -1 19.30 69.40 TC 64 19.10 69.51 4 5 337
1889 NI AS 09:00:00 TS 19.44 69.36 203 182 _________PP___ -1 19.54 69.30 TC 64 19.33 69.42 4 5 338
1889 NI AS 12:00:00 TS 19.68 69.25 182 169 _________OP___ -1 19.80 69.20 TC 64 19.56 69.31 4 5 338
1889 NI AS 15:00:00 TS 19.93 69.15 169 152 _________PO___ -1 20.06 69.10 TC 64 19.80 69.20 4 5 338
1889 NI AS 18:00:00 TS 20.16 69.05 152 144 _________OP___ -1 20.30 69.00 TC 64 20.02 69.10 4 5 338
1889 NI AS 21:00:00 TS 20.37 68.95 144 137 _________PP___ -1 20.50 68.90 TC 64 20.25 69.01 4 5 337
1889 NI AS 1889-06-07 00:00:00 TS 20.59 68.85 137 129 _________OP___ -1 20.70 68.80 TC 64 20.47 68.91 4 5 338
1889 NI AS 03:00:00 TS 20.82 68.75 129 121 _________PO___ -1 20.95 68.71 TC 64 20.70 68.80 4 5 337
1889 NI AS 06:00:00 TS 21.06 68.64 121 113 _________OP___ -1 21.20 68.60 TC 64 20.92 68.68 4 5 333
1889 NI AS 09:00:00 TS 21.28 68.50 113 103 _________PP___ -1 21.40 68.45 TC 64 21.15 68.56 4 5 329
1889 NI AS 12:00:00 TS 21.49 68.36 103 91 _________OP___ -1 21.60 68.30 TC 64 21.37 68.43 4 5 332
1889 NI AS 15:00:00 TS 21.72 68.25 98 84 _________PO___ -1 21.85 68.20 TC 64 21.60 68.30 4 5 339
1889 NI AS 18:00:00 TS 21.95 68.17 79 79 _________OP___ -1 22.10 68.10 TC 64 21.81 68.23 4 5 340
1889 NI AS 21:00:00 TS 22.15 68.08 85 83 _________PP___ -1 22.28 68.00 TC 64 22.02 68.16 4 5 331
1889 NI AS 1889-06-08 00:00:00 TS 22.37 67.92 103 103 _________OP___ -1 22.50 67.80 TC 64 22.25 68.03 4 7 321
1889 NI AS 03:00:00 TS 22.70 67.61 116 94 _________PO___ -1 22.89 67.41 TC 64 22.50 67.80 4 10 315
1889 NI AS 06:00:00 TS 23.07 67.16 88 88 _________OP___ -1 23.30 66.90 TC 64 22.83 67.43 4 11 309
1889 NI AS 09:00:00 TS 23.39 66.66 97 97 _________PP___ -1 23.59 66.37 TC 64 23.19 66.95 4 11 301
1889 NI AS 12:00:00 TS 23.66 66.10 136 136 _________OP___ -1 23.80 65.80 TC 64 23.52 66.40 4 12 295
1889 NI AS 15:00:00 TS 23.89 65.51 157 135 _________PO___ -1 23.98 65.21 TC 64 23.80 65.80 4 12 289
1889 NI AS 18:00:00 TS 24.04 64.88 135 122 _________OP___ -1 24.10 64.60 TC 64 23.99 65.15 4 12 282
1889 NI AS 21:00:00 TS 24.14 64.19 124 112 _________PP___ -1 24.18 63.90 TC 64 24.11 64.48 4 12 277
1889 NI AS 1889-06-09 00:00:00 TS 24.19 63.57 112 111 _________OP___ -1 24.20 63.30 TC 64 24.17 63.84 4 10 272
1889 NI AS 03:00:00 TS 24.18 63.15 112 111 _________PO___ -1 24.16 63.00 TC 64 24.20 63.30 4 6 267
1889 NI AS 06:00:00 TS 24.15 62.86 112 108 _________OP___ -1 24.10 62.80 TC 64 24.21 62.92 4 5 266
1889 NI AS 09:00:00 TS 24.14 62.58 113 111 _________PP___ -1 24.09 62.51 TC 64 24.19 62.64 4 5 266
1889 NI AS 12:00:00 TS 24.12 62.31 111 105 _________OP___ -1 24.10 62.20 TC 64 24.14 62.42 4 5 266
1889 NI AS 15:00:00 TS 24.10 62.05 102 100 _________PO___ -1 24.11 61.89 TC 56 24.10 62.20 4 5 265
1889 NI AS 18:00:00 TS 24.08 61.80 100 100 _________OP___ -1 24.10 61.60 TC 49 24.06 61.96 4 5 263
1889 NI AS 21:00:00 TS 24.05 61.55 115 115 _________PP___ -1 24.06 61.34 TC 41 24.04 61.69 4 5 262
1889 NI AS 1889-06-10 00:00:00 TS 24.01 61.30 122 122 _________OP___ -1 24.00 61.10 TC 34 24.02 61.40 4 4 263
1889 NI AS 03:00:00 NR 24.00 61.10 126 __________O___ -1 TC 24.00 61.10 2 4 266